Погода Хасковона неделю

Хасково, Болгария

05 - 11 сентября
  • 05сентября
    Сегодня
    +19°
    +34°
    Ясно и безоблачно
    ВремяПогодаТемператураВлажностьДавлениеВетер, м/сВероятность осадков
    00:00Ясно и безоблачно+22°C58 %747 мм0.9 м/с2 %
    03:00Ясно и безоблачно+19°C71 %746 мм0.8 м/с2 %
    06:00Ясно и безоблачно+17°C75 %746 мм1.1 м/с2 %
    09:00Ясно и безоблачно+20°C53 %747 мм0.7 м/с2 %
    12:00Ясно и безоблачно+29°C35 %747 мм2.1 м/с2 %
    15:00Ясно и безоблачно+33°C27 %746 мм0.9 м/с2 %
    18:00Ясно и безоблачно+33°C29 %745 мм1.5 м/с2 %
    21:00Ясно и безоблачно+27°C49 %745 мм1.2 м/с2 %
  • 06сентября
    Воскресенье
    +16°
    +36°
    Ясно и безоблачно
    ВремяПогодаТемператураВлажностьДавлениеВетер, м/сВероятность осадков
    00:00Ясно и безоблачно+24°C60 %745 мм2.4 м/с2 %
    03:00Ясно и безоблачно+21°C74 %745 мм1.1 м/с2 %
    06:00Ясно и безоблачно+20°C65 %745 мм1.3 м/с2 %
    09:00Ясно и безоблачно+23°C46 %746 мм2.7 м/с2 %
    12:00Ясно и безоблачно+33°C32 %747 мм4.9 м/с2 %
    15:00Ясно и безоблачно+35°C18 %747 мм5.6 м/с2 %
    18:00Ясно и безоблачно+33°C22 %747 мм5.0 м/с2 %
    21:00Ясно и безоблачно+27°C41 %748 мм1.7 м/с2 %
  • 07сентября
    Понедельник
    +14°
    +31°
    Ясно и безоблачно
    ВремяПогодаТемператураВлажностьДавлениеВетер, м/сВероятность осадков
    00:00Ясно и безоблачно+23°C48 %749 мм1.3 м/с2 %
    03:00Ясно и безоблачно+19°C48 %750 мм3.0 м/с2 %
    06:00Ясно и безоблачно+17°C53 %751 мм3.0 м/с2 %
    09:00Ясно и безоблачно+20°C43 %752 мм2.5 м/с2 %
    12:00Ясно и безоблачно+27°C49 %752 мм1.6 м/с2 %
    15:00Ясно и безоблачно+30°C36 %751 мм1.8 м/с2 %
    18:00Ясно и безоблачно+30°C33 %749 мм1.6 м/с2 %
    21:00Ясно и безоблачно+25°C53 %749 мм1.3 м/с2 %
  • 08сентября
    Вторник
    +13°
    +30°
    Ясно и безоблачно
    ВремяПогодаТемператураВлажностьДавлениеВетер, м/сВероятность осадков
    00:00Ясно и безоблачно+22°C56 %750 мм3.1 м/с2 %
    03:00Ясно и безоблачно+17°C70 %749 мм1.4 м/с2 %
    06:00Ясно и безоблачно+15°C82 %749 мм0.6 м/с2 %
    09:00Ясно и безоблачно+17°C66 %749 мм0.4 м/с2 %
    12:00Ясно и безоблачно+25°C41 %749 мм1.2 м/с2 %
    15:00Ясно и безоблачно+29°C34 %747 мм1.3 м/с2 %
    18:00Ясно и безоблачно+29°C30 %745 мм1.4 м/с2 %
    21:00Ясно и безоблачно+25°C45 %745 мм0.5 м/с2 %
  • 09сентября
    Среда
    +14°
    +30°
    Ясно и безоблачно
    ВремяПогодаТемператураВлажностьДавлениеВетер, м/сВероятность осадков
    00:00Ясно и безоблачно+21°C56 %745 мм3.3 м/с2 %
    03:00Ясно и безоблачно+17°C74 %745 мм0.7 м/с2 %
    06:00Ясно и безоблачно+14°C84 %744 мм0.4 м/с2 %
    09:00Ясно и безоблачно+17°C66 %745 мм0.2 м/с2 %
    12:00Ясно и безоблачно+24°C40 %745 мм1.2 м/с2 %
    15:00Ясно и безоблачно+29°C33 %743 мм1.6 м/с2 %
    18:00Ясно и безоблачно+29°C31 %742 мм1.6 м/с2 %
    21:00Ясно и безоблачно+25°C46 %742 мм1.2 м/с2 %
  • 10сентября
    Четверг
    +15°
    +31°
    Ясно и безоблачно
    ВремяПогодаТемператураВлажностьДавлениеВетер, м/сВероятность осадков
    03:00Ясно и безоблачно+18°C75 %743 мм1.3 м/с2 %
    09:00Ясно и безоблачно+18°C68 %744 мм0.5 м/с2 %
    15:00Ясно и безоблачно+30°C40 %743 мм1.7 м/с2 %
    21:00Ясно и безоблачно+25°C53 %742 мм2.1 м/с6 %
  • 11сентября
    Пятница
    +16°
    +30°
    Ясно и безоблачно
    ВремяПогодаТемператураВлажностьДавлениеВетер, м/сВероятность осадков
    03:00Ясно и безоблачно+18°C84 %743 мм1.7 м/с2 %
    09:00Ясно и безоблачно+19°C83 %744 мм1.2 м/с2 %
    15:00Ясно и безоблачно+29°C43 %743 мм2.5 м/с21 %
    21:00Ясно и безоблачно+23°C56 %743 мм2.4 м/с29 %
Мы используем cookies
Соглашаюсь